sensor_id;sensor_type;location;lat;lon;timestamp;pressure;altitude;pressure_sealevel;temperature;humidity
33554;BME280;19885;42.208;24.952;2023-05-22T00:00:57;99510.28;;;18.16;97.34
33554;BME280;19885;42.208;24.952;2023-05-22T00:03:26;99507.78;;;18.12;97.08
33554;BME280;19885;42.208;24.952;2023-05-22T00:05:52;99509.56;;;18.11;96.38
33554;BME280;19885;42.208;24.952;2023-05-22T00:08:26;99507.72;;;18.13;96.49
33554;BME280;19885;42.208;24.952;2023-05-22T00:10:51;99506.84;;;18.14;96.11
33554;BME280;19885;42.208;24.952;2023-05-22T00:13:16;99512.25;;;18.08;96.84
33554;BME280;19885;42.208;24.952;2023-05-22T00:15:44;99515.09;;;18.02;97.74
33554;BME280;19885;42.208;24.952;2023-05-22T00:18:09;99508.00;;;18.04;97.86
33554;BME280;19885;42.208;24.952;2023-05-22T00:20:37;99508.69;;;18.11;97.97
33554;BME280;19885;42.208;24.952;2023-05-22T00:23:05;99506.78;;;18.16;96.65
33554;BME280;19885;42.208;24.952;2023-05-22T00:25:39;99507.50;;;17.92;98.56
33554;BME280;19885;42.208;24.952;2023-05-22T00:28:04;99506.31;;;18.02;98.41
33554;BME280;19885;42.208;24.952;2023-05-22T00:30:30;99500.91;;;18.06;97.20
33554;BME280;19885;42.208;24.952;2023-05-22T00:32:55;99511.28;;;18.12;97.64
33554;BME280;19885;42.208;24.952;2023-05-22T00:35:21;99506.03;;;18.11;96.75
33554;BME280;19885;42.208;24.952;2023-05-22T00:37:46;99510.56;;;18.07;97.23
33554;BME280;19885;42.208;24.952;2023-05-22T00:40:12;99516.59;;;18.11;98.00
33554;BME280;19885;42.208;24.952;2023-05-22T00:42:37;99510.75;;;18.01;98.00
33554;BME280;19885;42.208;24.952;2023-05-22T00:45:03;99477.22;;;17.75;97.82
33554;BME280;19885;42.208;24.952;2023-05-22T00:47:30;99516.69;;;18.08;97.48
33554;BME280;19885;42.208;24.952;2023-05-22T00:49:56;99514.78;;;18.13;97.12
33554;BME280;19885;42.208;24.952;2023-05-22T00:52:21;99516.28;;;18.21;97.11
33554;BME280;19885;42.208;24.952;2023-05-22T00:54:47;99514.63;;;17.24;100.00
33554;BME280;19885;42.208;24.952;2023-05-22T00:57:14;99500.09;;;17.41;100.00
33554;BME280;19885;42.208;24.952;2023-05-22T00:59:39;99504.31;;;17.48;100.00
33554;BME280;19885;42.208;24.952;2023-05-22T01:02:05;99507.53;;;17.90;98.96
33554;BME280;19885;42.208;24.952;2023-05-22T01:04:30;99504.09;;;17.24;100.00
33554;BME280;19885;42.208;24.952;2023-05-22T01:06:57;99502.28;;;16.92;100.00
33554;BME280;19885;42.208;24.952;2023-05-22T01:09:23;99508.28;;;17.31;100.00
33554;BME280;19885;42.208;24.952;2023-05-22T01:19:51;99515.91;;;18.04;98.58
33554;BME280;19885;42.208;24.952;2023-05-22T01:32:22;99495.19;;;18.21;96.93
33554;BME280;19885;42.208;24.952;2023-05-22T01:34:53;99504.00;;;18.20;96.70
33554;BME280;19885;42.208;24.952;2023-05-22T01:37:19;99502.16;;;18.24;96.89
33554;BME280;19885;42.208;24.952;2023-05-22T01:39:46;99502.19;;;18.22;96.27
33554;BME280;19885;42.208;24.952;2023-05-22T01:42:12;99503.16;;;17.25;100.00
33554;BME280;19885;42.208;24.952;2023-05-22T01:44:37;99494.88;;;17.72;99.39
33554;BME280;19885;42.208;24.952;2023-05-22T01:47:02;99494.22;;;17.95;96.71
33554;BME280;19885;42.208;24.952;2023-05-22T01:49:32;99493.25;;;17.97;96.48
33554;BME280;19885;42.208;24.952;2023-05-22T01:52:16;99490.50;;;18.02;96.42
33554;BME280;19885;42.208;24.952;2023-05-22T01:54:47;99495.19;;;17.92;97.96
33554;BME280;19885;42.208;24.952;2023-05-22T01:57:18;99492.16;;;18.06;97.17
33554;BME280;19885;42.208;24.952;2023-05-22T02:00:28;99497.97;;;18.17;96.50
33554;BME280;19885;42.208;24.952;2023-05-22T02:02:34;99497.97;;;17.88;96.42
33554;BME280;19885;42.208;24.952;2023-05-22T02:05:04;99494.81;;;16.74;100.00
33554;BME280;19885;42.208;24.952;2023-05-22T02:07:33;99504.53;;;16.32;100.00
33554;BME280;19885;42.208;24.952;2023-05-22T02:10:00;99503.13;;;16.92;100.00
33554;BME280;19885;42.208;24.952;2023-05-22T02:12:27;99501.81;;;17.42;100.00
33554;BME280;19885;42.208;24.952;2023-05-22T02:14:55;99496.31;;;17.53;99.36
33554;BME280;19885;42.208;24.952;2023-05-22T02:17:21;99500.56;;;17.57;99.65
33554;BME280;19885;42.208;24.952;2023-05-22T02:19:47;99508.22;;;17.66;98.57
33554;BME280;19885;42.208;24.952;2023-05-22T02:22:12;99505.94;;;17.85;97.18
33554;BME280;19885;42.208;24.952;2023-05-22T02:24:42;99498.81;;;17.88;96.67
33554;BME280;19885;42.208;24.952;2023-05-22T02:27:10;99495.28;;;17.89;96.09
33554;BME280;19885;42.208;24.952;2023-05-22T02:29:36;99494.00;;;18.02;96.20
33554;BME280;19885;42.208;24.952;2023-05-22T02:32:01;99501.72;;;18.08;95.53
33554;BME280;19885;42.208;24.952;2023-05-22T02:34:26;99501.41;;;17.90;96.20
33554;BME280;19885;42.208;24.952;2023-05-22T02:36:52;99505.38;;;18.04;95.37
33554;BME280;19885;42.208;24.952;2023-05-22T02:39:17;99501.00;;;18.03;95.04
33554;BME280;19885;42.208;24.952;2023-05-22T02:41:46;99505.28;;;18.07;95.12
33554;BME280;19885;42.208;24.952;2023-05-22T02:44:16;99503.53;;;18.06;95.62
33554;BME280;19885;42.208;24.952;2023-05-22T02:46:41;99505.38;;;18.04;96.11
33554;BME280;19885;42.208;24.952;2023-05-22T02:49:07;99507.44;;;17.93;96.46
33554;BME280;19885;42.208;24.952;2023-05-22T02:51:32;99503.72;;;18.00;95.78
33554;BME280;19885;42.208;24.952;2023-05-22T02:53:57;99507.09;;;18.05;95.56
33554;BME280;19885;42.208;24.952;2023-05-22T02:56:25;99509.75;;;18.05;95.95
33554;BME280;19885;42.208;24.952;2023-05-22T02:58:53;99501.78;;;18.07;95.86
33554;BME280;19885;42.208;24.952;2023-05-22T03:01:18;99500.97;;;18.05;95.96
33554;BME280;19885;42.208;24.952;2023-05-22T03:03:43;99504.50;;;18.04;96.13
33554;BME280;19885;42.208;24.952;2023-05-22T03:06:08;99508.94;;;18.03;96.28
33554;BME280;19885;42.208;24.952;2023-05-22T03:08:34;99504.50;;;18.04;95.81
33554;BME280;19885;42.208;24.952;2023-05-22T03:11:02;99501.00;;;18.03;95.69
33554;BME280;19885;42.208;24.952;2023-05-22T03:13:27;99504.63;;;17.99;96.17
33554;BME280;19885;42.208;24.952;2023-05-22T03:15:53;99499.31;;;18.01;95.84
33554;BME280;19885;42.208;24.952;2023-05-22T03:18:18;99500.16;;;18.03;95.48
33554;BME280;19885;42.208;24.952;2023-05-22T03:20:44;99500.06;;;18.06;96.14
33554;BME280;19885;42.208;24.952;2023-05-22T03:23:10;99506.19;;;18.06;95.36
33554;BME280;19885;42.208;24.952;2023-05-22T03:25:35;99506.22;;;18.05;95.63
33554;BME280;19885;42.208;24.952;2023-05-22T03:28:00;99508.88;;;18.05;95.37
33554;BME280;19885;42.208;24.952;2023-05-22T03:30:27;99504.53;;;18.02;96.09
33554;BME280;19885;42.208;24.952;2023-05-22T03:32:52;99501.81;;;18.05;95.73
33554;BME280;19885;42.208;24.952;2023-05-22T03:35:19;99505.22;;;18.09;95.74
33554;BME280;19885;42.208;24.952;2023-05-22T03:37:44;99506.91;;;18.11;95.72
33554;BME280;19885;42.208;24.952;2023-05-22T03:40:10;99508.59;;;18.14;96.02
33554;BME280;19885;42.208;24.952;2023-05-22T03:42:35;99498.00;;;18.15;95.98
33554;BME280;19885;42.208;24.952;2023-05-22T03:45:01;99507.59;;;18.18;96.08
33554;BME280;19885;42.208;24.952;2023-05-22T03:47:26;99504.94;;;18.18;96.38
33554;BME280;19885;42.208;24.952;2023-05-22T03:49:51;99501.78;;;18.07;97.13
33554;BME280;19885;42.208;24.952;2023-05-22T03:52:17;99499.53;;;18.22;96.81
33554;BME280;19885;42.208;24.952;2023-05-22T03:54:43;99508.47;;;18.18;97.07
33554;BME280;19885;42.208;24.952;2023-05-22T03:57:09;99516.44;;;17.86;98.67
33554;BME280;19885;42.208;24.952;2023-05-22T03:59:34;99508.72;;;18.09;98.09
33554;BME280;19885;42.208;24.952;2023-05-22T04:02:00;99507.78;;;18.12;97.42
33554;BME280;19885;42.208;24.952;2023-05-22T04:04:28;99501.31;;;18.22;96.73
33554;BME280;19885;42.208;24.952;2023-05-22T04:06:54;99506.38;;;18.29;95.96
33554;BME280;19885;42.208;24.952;2023-05-22T04:09:24;99506.28;;;18.32;95.92
33554;BME280;19885;42.208;24.952;2023-05-22T04:11:50;99508.19;;;18.27;95.38
33554;BME280;19885;42.208;24.952;2023-05-22T04:14:17;99502.81;;;18.30;95.13
33554;BME280;19885;42.208;24.952;2023-05-22T04:16:44;99502.72;;;18.33;95.45
33554;BME280;19885;42.208;24.952;2023-05-22T04:19:09;99506.16;;;18.35;95.57
33554;BME280;19885;42.208;24.952;2023-05-22T04:21:38;99497.44;;;18.33;95.60
33554;BME280;19885;42.208;24.952;2023-05-22T04:24:03;99500.00;;;18.36;95.89
33554;BME280;19885;42.208;24.952;2023-05-22T04:26:34;99501.91;;;18.31;96.55
33554;BME280;19885;42.208;24.952;2023-05-22T04:29:00;99501.16;;;18.28;96.68
33554;BME280;19885;42.208;24.952;2023-05-22T04:31:26;99497.56;;;18.30;96.68
33554;BME280;19885;42.208;24.952;2023-05-22T04:33:51;99499.09;;;18.37;96.46
33554;BME280;19885;42.208;24.952;2023-05-22T04:36:18;99503.38;;;18.12;97.94
33554;BME280;19885;42.208;24.952;2023-05-22T04:38:46;99507.53;;;17.90;99.20
33554;BME280;19885;42.208;24.952;2023-05-22T04:41:11;99508.81;;;18.06;98.89
33554;BME280;19885;42.208;24.952;2023-05-22T04:43:38;99512.00;;;18.17;98.14
33554;BME280;19885;42.208;24.952;2023-05-22T04:46:04;99512.88;;;18.18;97.93
33554;BME280;19885;42.208;24.952;2023-05-22T04:48:29;99516.47;;;18.15;98.25
33554;BME280;19885;42.208;24.952;2023-05-22T04:50:55;99515.50;;;17.89;99.40
33554;BME280;19885;42.208;24.952;2023-05-22T16:07:43;99497.63;;;20.54;75.90
33554;BME280;19885;42.208;24.952;2023-05-22T16:10:08;99490.19;;;20.42;77.32
33554;BME280;19885;42.208;24.952;2023-05-22T16:12:34;99490.66;;;20.30;79.50
33554;BME280;19885;42.208;24.952;2023-05-22T16:14:59;99497.78;;;20.28;79.06
33554;BME280;19885;42.208;24.952;2023-05-22T16:17:25;99503.72;;;20.56;77.09
33554;BME280;19885;42.208;24.952;2023-05-22T16:19:50;99511.56;;;20.59;73.75
33554;BME280;19885;42.208;24.952;2023-05-22T16:22:15;99502.69;;;20.60;73.66
33554;BME280;19885;42.208;24.952;2023-05-22T16:24:41;99506.31;;;20.57;72.52
33554;BME280;19885;42.208;24.952;2023-05-22T16:27:06;99504.06;;;20.47;71.75
33554;BME280;19885;42.208;24.952;2023-05-22T16:29:31;99507.50;;;20.50;71.85
33554;BME280;19885;42.208;24.952;2023-05-22T16:31:57;99522.16;;;20.59;70.09
33554;BME280;19885;42.208;24.952;2023-05-22T16:34:22;99508.84;;;20.82;69.99
33554;BME280;19885;42.208;24.952;2023-05-22T16:36:50;99516.06;;;21.00;69.65
33554;BME280;19885;42.208;24.952;2023-05-22T16:39:15;99517.16;;;21.16;70.04
33554;BME280;19885;42.208;24.952;2023-05-22T16:41:41;99520.13;;;21.30;70.44
33554;BME280;19885;42.208;24.952;2023-05-22T16:44:07;99516.41;;;21.35;68.06
33554;BME280;19885;42.208;24.952;2023-05-22T16:46:32;99525.81;;;21.42;70.46
33554;BME280;19885;42.208;24.952;2023-05-22T16:48:57;99520.50;;;21.42;67.02
33554;BME280;19885;42.208;24.952;2023-05-22T16:51:23;99518.56;;;21.45;67.34
33554;BME280;19885;42.208;24.952;2023-05-22T16:53:48;99527.13;;;21.52;70.11
33554;BME280;19885;42.208;24.952;2023-05-22T16:56:14;99525.59;;;21.26;69.73
33554;BME280;19885;42.208;24.952;2023-05-22T16:58:41;99535.16;;;21.30;69.98
33554;BME280;19885;42.208;24.952;2023-05-22T17:01:06;99540.97;;;21.38;70.33
33554;BME280;19885;42.208;24.952;2023-05-22T17:03:32;99540.94;;;21.40;72.32
33554;BME280;19885;42.208;24.952;2023-05-22T17:05:57;99554.97;;;21.42;68.64
33554;BME280;19885;42.208;24.952;2023-05-22T17:08:23;99561.19;;;21.41;71.61
33554;BME280;19885;42.208;24.952;2023-05-22T17:10:52;99572.38;;;21.49;69.88
33554;BME280;19885;42.208;24.952;2023-05-22T17:13:17;99576.13;;;21.43;71.21
33554;BME280;19885;42.208;24.952;2023-05-22T17:15:45;99571.69;;;21.44;70.53
33554;BME280;19885;42.208;24.952;2023-05-22T17:18:11;99574.19;;;21.47;71.40
33554;BME280;19885;42.208;24.952;2023-05-22T17:20:36;99570.75;;;21.45;70.05
33554;BME280;19885;42.208;24.952;2023-05-22T17:23:02;99576.97;;;21.23;70.63
33554;BME280;19885;42.208;24.952;2023-05-22T17:25:27;99578.44;;;21.30;69.37
33554;BME280;19885;42.208;24.952;2023-05-22T17:27:52;99577.84;;;20.79;69.12
33554;BME280;19885;42.208;24.952;2023-05-22T17:30:18;99586.50;;;20.38;72.93
33554;BME280;19885;42.208;24.952;2023-05-22T17:32:43;99586.69;;;19.59;80.26
33554;BME280;19885;42.208;24.952;2023-05-22T17:35:11;99597.81;;;19.16;85.72
33554;BME280;19885;42.208;24.952;2023-05-22T17:37:37;99599.66;;;19.13;86.61
33554;BME280;19885;42.208;24.952;2023-05-22T17:40:02;99588.44;;;18.79;89.44
33554;BME280;19885;42.208;24.952;2023-05-22T17:42:28;99592.88;;;18.49;92.11
33554;BME280;19885;42.208;24.952;2023-05-22T17:44:54;99599.53;;;18.31;90.79
33554;BME280;19885;42.208;24.952;2023-05-22T17:47:19;99592.47;;;18.32;92.47
33554;BME280;19885;42.208;24.952;2023-05-22T17:49:44;99592.94;;;18.15;92.50
33554;BME280;19885;42.208;24.952;2023-05-22T17:52:10;99594.03;;;18.08;93.11
33554;BME280;19885;42.208;24.952;2023-05-22T17:54:36;99587.16;;;18.03;94.08
33554;BME280;19885;42.208;24.952;2023-05-22T17:57:02;99579.56;;;17.92;95.83
33554;BME280;19885;42.208;24.952;2023-05-22T17:59:28;99591.63;;;17.68;97.47
33554;BME280;19885;42.208;24.952;2023-05-22T18:01:53;99578.63;;;17.62;97.86
33554;BME280;19885;42.208;24.952;2023-05-22T18:04:19;99582.53;;;17.45;99.35
33554;BME280;19885;42.208;24.952;2023-05-22T18:06:44;99578.31;;;17.38;100.00
33554;BME280;19885;42.208;24.952;2023-05-22T18:09:10;99578.44;;;17.33;100.00
33554;BME280;19885;42.208;24.952;2023-05-22T18:11:35;99582.63;;;17.42;100.00
33554;BME280;19885;42.208;24.952;2023-05-22T18:14:01;99577.16;;;17.51;100.00
33554;BME280;19885;42.208;24.952;2023-05-22T18:16:26;99575.56;;;17.44;100.00
33554;BME280;19885;42.208;24.952;2023-05-22T18:18:51;99572.09;;;17.42;100.00
33554;BME280;19885;42.208;24.952;2023-05-22T18:21:17;99569.59;;;17.37;100.00
33554;BME280;19885;42.208;24.952;2023-05-22T18:23:42;99572.56;;;17.24;100.00
33554;BME280;19885;42.208;24.952;2023-05-22T18:26:07;99583.09;;;17.24;100.00
33554;BME280;19885;42.208;24.952;2023-05-22T18:28:33;99596.28;;;17.24;100.00
33554;BME280;19885;42.208;24.952;2023-05-22T18:30:59;99600.78;;;17.19;100.00
33554;BME280;19885;42.208;24.952;2023-05-22T18:33:25;99605.00;;;17.24;100.00
33554;BME280;19885;42.208;24.952;2023-05-22T18:35:51;99615.25;;;17.36;100.00
33554;BME280;19885;42.208;24.952;2023-05-22T18:38:17;99626.09;;;17.24;100.00
33554;BME280;19885;42.208;24.952;2023-05-22T18:40:42;99623.50;;;17.23;100.00
33554;BME280;19885;42.208;24.952;2023-05-22T18:43:07;99623.66;;;17.17;100.00
33554;BME280;19885;42.208;24.952;2023-05-22T18:45:33;99617.00;;;17.37;100.00
33554;BME280;19885;42.208;24.952;2023-05-22T18:47:58;99628.53;;;17.32;100.00
33554;BME280;19885;42.208;24.952;2023-05-22T18:50:23;99632.16;;;17.28;100.00
33554;BME280;19885;42.208;24.952;2023-05-22T18:52:51;99638.19;;;17.33;100.00
33554;BME280;19885;42.208;24.952;2023-05-22T18:55:16;99636.50;;;17.29;100.00
33554;BME280;19885;42.208;24.952;2023-05-22T18:57:41;99627.22;;;17.14;100.00
33554;BME280;19885;42.208;24.952;2023-05-22T19:00:07;99623.78;;;17.10;100.00
33554;BME280;19885;42.208;24.952;2023-05-22T19:02:34;99623.66;;;17.17;100.00
33554;BME280;19885;42.208;24.952;2023-05-22T19:04:59;99621.47;;;16.97;100.00
33554;BME280;19885;42.208;24.952;2023-05-22T19:07:25;99628.59;;;16.93;100.00
33554;BME280;19885;42.208;24.952;2023-05-22T19:09:50;99617.16;;;16.94;100.00
33554;BME280;19885;42.208;24.952;2023-05-22T19:12:16;99629.53;;;16.91;100.00
33554;BME280;19885;42.208;24.952;2023-05-22T19:14:41;99627.69;;;16.94;100.00
33554;BME280;19885;42.208;24.952;2023-05-22T19:17:07;99628.44;;;17.36;100.00
33554;BME280;19885;42.208;24.952;2023-05-22T19:19:32;99635.50;;;17.71;100.00
33554;BME280;19885;42.208;24.952;2023-05-22T19:21:57;99635.84;;;17.91;99.72
33554;BME280;19885;42.208;24.952;2023-05-22T19:24:25;99639.41;;;18.21;97.00
33554;BME280;19885;42.208;24.952;2023-05-22T19:26:51;99638.97;;;18.05;97.92
33554;BME280;19885;42.208;24.952;2023-05-22T19:29:16;99645.78;;;17.45;100.00
33554;BME280;19885;42.208;24.952;2023-05-22T19:31:42;99648.47;;;17.06;100.00
33554;BME280;19885;42.208;24.952;2023-05-22T19:34:07;99649.91;;;17.20;100.00
33554;BME280;19885;42.208;24.952;2023-05-22T19:36:33;99652.78;;;17.46;100.00
33554;BME280;19885;42.208;24.952;2023-05-22T19:38:59;99649.84;;;17.93;100.00
33554;BME280;19885;42.208;24.952;2023-05-22T19:41:24;99652.97;;;18.07;100.00
33554;BME280;19885;42.208;24.952;2023-05-22T19:43:50;99643.88;;;18.17;100.00
33554;BME280;19885;42.208;24.952;2023-05-22T19:46:15;99647.38;;;18.19;100.00
33554;BME280;19885;42.208;24.952;2023-05-22T19:48:41;99647.38;;;17.86;100.00
33554;BME280;19885;42.208;24.952;2023-05-22T19:51:06;99656.09;;;17.55;100.00
33554;BME280;19885;42.208;24.952;2023-05-22T19:53:32;99662.22;;;16.81;100.00
33554;BME280;19885;42.208;24.952;2023-05-22T19:55:58;99659.69;;;16.76;100.00
33554;BME280;19885;42.208;24.952;2023-05-22T19:58:23;99664.59;;;16.50;100.00
33554;BME280;19885;42.208;24.952;2023-05-22T20:00:49;99660.44;;;16.83;100.00
33554;BME280;19885;42.208;24.952;2023-05-22T20:03:15;99664.97;;;17.13;100.00
33554;BME280;19885;42.208;24.952;2023-05-22T20:05:40;99660.56;;;17.52;100.00
33554;BME280;19885;42.208;24.952;2023-05-22T20:08:05;99654.00;;;17.69;100.00
33554;BME280;19885;42.208;24.952;2023-05-22T20:10:31;99648.50;;;17.77;100.00
33554;BME280;19885;42.208;24.952;2023-05-22T20:12:56;99660.53;;;16.78;100.00
33554;BME280;19885;42.208;24.952;2023-05-22T20:15:23;99655.81;;;16.53;100.00
33554;BME280;19885;42.208;24.952;2023-05-22T20:17:49;99657.81;;;16.81;100.00
33554;BME280;19885;42.208;24.952;2023-05-22T20:20:20;99663.00;;;16.84;100.00
33554;BME280;19885;42.208;24.952;2023-05-22T20:22:45;99659.31;;;16.93;100.00
33554;BME280;19885;42.208;24.952;2023-05-22T20:25:11;99651.94;;;16.69;100.00
33554;BME280;19885;42.208;24.952;2023-05-22T20:27:36;99653.88;;;17.00;100.00
33554;BME280;19885;42.208;24.952;2023-05-22T20:30:02;99644.63;;;17.20;100.00
33554;BME280;19885;42.208;24.952;2023-05-22T20:32:27;99649.28;;;17.45;100.00
33554;BME280;19885;42.208;24.952;2023-05-22T20:34:53;99650.00;;;17.53;100.00
33554;BME280;19885;42.208;24.952;2023-05-22T20:37:19;99645.91;;;17.75;100.00
33554;BME280;19885;42.208;24.952;2023-05-22T20:39:45;99656.63;;;17.69;100.00
33554;BME280;19885;42.208;24.952;2023-05-22T20:42:10;99648.44;;;17.80;100.00
33554;BME280;19885;42.208;24.952;2023-05-22T20:44:37;99649.91;;;17.90;100.00
33554;BME280;19885;42.208;24.952;2023-05-22T20:47:03;99644.38;;;17.99;100.00
33554;BME280;19885;42.208;24.952;2023-05-22T20:49:28;99641.63;;;17.71;100.00
33554;BME280;19885;42.208;24.952;2023-05-22T20:51:53;99638.91;;;17.38;100.00
33554;BME280;19885;42.208;24.952;2023-05-22T20:54:19;99643.41;;;16.97;100.00
33554;BME280;19885;42.208;24.952;2023-05-22T20:56:45;99642.53;;;16.98;100.00
33554;BME280;19885;42.208;24.952;2023-05-22T20:59:10;99627.41;;;17.06;100.00
33554;BME280;19885;42.208;24.952;2023-05-22T21:01:35;99626.56;;;16.66;100.00
33554;BME280;19885;42.208;24.952;2023-05-22T21:04:01;99630.38;;;16.53;100.00
33554;BME280;19885;42.208;24.952;2023-05-22T21:06:26;99638.44;;;16.84;100.00
33554;BME280;19885;42.208;24.952;2023-05-22T21:08:52;99640.13;;;16.47;100.00
33554;BME280;19885;42.208;24.952;2023-05-22T21:11:23;99642.94;;;16.80;100.00
33554;BME280;19885;42.208;24.952;2023-05-22T21:13:48;99640.34;;;16.77;100.00
33554;BME280;19885;42.208;24.952;2023-05-22T21:16:13;99653.59;;;16.30;100.00
33554;BME280;19885;42.208;24.952;2023-05-22T21:18:39;99658.44;;;16.50;100.00
33554;BME280;19885;42.208;24.952;2023-05-22T21:21:04;99646.09;;;17.33;100.00
33554;BME280;19885;42.208;24.952;2023-05-22T21:23:29;99644.50;;;17.26;100.00
33554;BME280;19885;42.208;24.952;2023-05-22T21:25:55;99644.16;;;17.02;100.00
33554;BME280;19885;42.208;24.952;2023-05-22T21:28:20;99646.78;;;16.64;100.00
33554;BME280;19885;42.208;24.952;2023-05-22T21:30:45;99646.78;;;16.20;100.00
33554;BME280;19885;42.208;24.952;2023-05-22T21:33:10;99640.00;;;16.10;100.00
33554;BME280;19885;42.208;24.952;2023-05-22T21:35:36;99631.97;;;16.16;100.00
33554;BME280;19885;42.208;24.952;2023-05-22T21:38:01;99627.84;;;16.03;100.00
33554;BME280;19885;42.208;24.952;2023-05-22T21:40:26;99632.75;;;16.21;100.00
33554;BME280;19885;42.208;24.952;2023-05-22T21:42:52;99622.91;;;15.88;100.00
33554;BME280;19885;42.208;24.952;2023-05-22T21:45:17;99618.47;;;15.90;100.00
33554;BME280;19885;42.208;24.952;2023-05-22T21:47:42;99617.91;;;15.74;100.00
33554;BME280;19885;42.208;24.952;2023-05-22T21:50:08;99617.84;;;15.76;100.00
33554;BME280;19885;42.208;24.952;2023-05-22T21:52:33;99622.22;;;16.21;100.00
33554;BME280;19885;42.208;24.952;2023-05-22T21:54:58;99622.00;;;16.33;100.00
33554;BME280;19885;42.208;24.952;2023-05-22T21:57:26;99613.94;;;15.98;100.00
33554;BME280;19885;42.208;24.952;2023-05-22T21:59:51;99615.66;;;15.99;100.00
33554;BME280;19885;42.208;24.952;2023-05-22T22:02:17;99623.25;;;16.14;100.00
33554;BME280;19885;42.208;24.952;2023-05-22T22:04:42;99619.00;;;16.07;100.00
33554;BME280;19885;42.208;24.952;2023-05-22T22:07:07;99620.84;;;16.02;100.00
33554;BME280;19885;42.208;24.952;2023-05-22T22:09:33;99621.13;;;16.31;100.00
33554;BME280;19885;42.208;24.952;2023-05-22T22:11:58;99618.72;;;15.75;100.00
33554;BME280;19885;42.208;24.952;2023-05-22T22:14:23;99627.03;;;15.53;100.00
33554;BME280;19885;42.208;24.952;2023-05-22T22:16:49;99626.84;;;16.10;100.00
33554;BME280;19885;42.208;24.952;2023-05-22T22:19:18;99622.66;;;16.42;100.00
33554;BME280;19885;42.208;24.952;2023-05-22T22:21:43;99619.34;;;16.74;100.00
33554;BME280;19885;42.208;24.952;2023-05-22T22:24:09;99608.91;;;16.30;100.00
33554;BME280;19885;42.208;24.952;2023-05-22T22:26:34;99610.94;;;15.72;100.00
33554;BME280;19885;42.208;24.952;2023-05-22T22:29:00;99605.25;;;15.94;100.00
33554;BME280;19885;42.208;24.952;2023-05-22T22:31:25;99602.88;;;15.30;100.00
33554;BME280;19885;42.208;24.952;2023-05-22T22:33:50;99606.38;;;15.29;100.00
33554;BME280;19885;42.208;24.952;2023-05-22T22:36:16;99616.88;;;15.29;100.00
33554;BME280;19885;42.208;24.952;2023-05-22T22:38:41;99604.69;;;15.25;100.00
33554;BME280;19885;42.208;24.952;2023-05-22T22:41:06;99600.78;;;15.50;100.00
33554;BME280;19885;42.208;24.952;2023-05-22T22:43:33;99598.28;;;15.41;100.00
33554;BME280;19885;42.208;24.952;2023-05-22T22:45:58;99603.75;;;15.31;100.00
33554;BME280;19885;42.208;24.952;2023-05-22T22:48:24;99602.31;;;15.09;100.00
33554;BME280;19885;42.208;24.952;2023-05-22T22:50:49;99593.31;;;15.25;100.00
33554;BME280;19885;42.208;24.952;2023-05-22T22:53:16;99606.22;;;15.38;100.00
33554;BME280;19885;42.208;24.952;2023-05-22T22:55:41;99588.09;;;15.23;100.00
33554;BME280;19885;42.208;24.952;2023-05-22T22:58:07;99584.97;;;15.00;100.00
33554;BME280;19885;42.208;24.952;2023-05-22T23:00:33;99583.72;;;15.22;100.00
33554;BME280;19885;42.208;24.952;2023-05-22T23:02:58;99579.88;;;15.46;100.00
33554;BME280;19885;42.208;24.952;2023-05-22T23:05:24;99576.06;;;15.10;100.00
33554;BME280;19885;42.208;24.952;2023-05-22T23:07:49;99576.59;;;14.77;100.00
33554;BME280;19885;42.208;24.952;2023-05-22T23:10:14;99590.69;;;14.68;100.00
33554;BME280;19885;42.208;24.952;2023-05-22T23:12:40;99587.47;;;14.50;100.00
33554;BME280;19885;42.208;24.952;2023-05-22T23:15:05;99584.22;;;14.31;100.00
33554;BME280;19885;42.208;24.952;2023-05-22T23:17:33;99582.38;;;14.39;100.00
33554;BME280;19885;42.208;24.952;2023-05-22T23:19:58;99584.97;;;14.42;100.00
33554;BME280;19885;42.208;24.952;2023-05-22T23:22:23;99579.97;;;14.85;100.00
33554;BME280;19885;42.208;24.952;2023-05-22T23:24:49;99585.63;;;15.14;100.00
33554;BME280;19885;42.208;24.952;2023-05-22T23:27:14;99580.31;;;14.61;100.00
33554;BME280;19885;42.208;24.952;2023-05-22T23:29:39;99583.19;;;14.43;100.00
33554;BME280;19885;42.208;24.952;2023-05-22T23:32:05;99588.84;;;14.75;100.00
33554;BME280;19885;42.208;24.952;2023-05-22T23:34:30;99587.16;;;15.27;100.00
33554;BME280;19885;42.208;24.952;2023-05-22T23:36:56;99586.00;;;15.45;100.00
33554;BME280;19885;42.208;24.952;2023-05-22T23:39:21;99582.97;;;15.17;100.00
33554;BME280;19885;42.208;24.952;2023-05-22T23:41:46;99573.97;;;14.77;100.00
33554;BME280;19885;42.208;24.952;2023-05-22T23:44:11;99575.59;;;14.84;100.00
33554;BME280;19885;42.208;24.952;2023-05-22T23:46:37;99571.59;;;14.60;100.00
33554;BME280;19885;42.208;24.952;2023-05-22T23:49:04;99577.06;;;14.44;100.00
33554;BME280;19885;42.208;24.952;2023-05-22T23:51:29;99569.31;;;14.35;100.00
33554;BME280;19885;42.208;24.952;2023-05-22T23:53:55;99572.00;;;14.30;100.00
33554;BME280;19885;42.208;24.952;2023-05-22T23:56:20;99572.69;;;14.43;100.00
33554;BME280;19885;42.208;24.952;2023-05-22T23:58:46;99567.44;;;14.46;100.00
